Time;durP1;ratioP1;P1;durP2;ratioP2;P2;SDS_P1;SDS_P2;PMS_P1;PMS_P2;Temp;Humidity;BMP_temperature;BMP_pressure;BME280_temperature;BME280_humidity;BME280_pressure;Samples;Min_cycle;Max_cycle;Signal;HPM_P1;HPM_P2
2023/01/29 00:00:13;;;;;;;0.98;0.98;;;;;;;-3.90;98.93;99437.66;5041050;28;20045;-91
2023/01/29 00:02:41;;;;;;;0.65;0.65;;;;;;;-3.93;98.96;99439.59;5037156;28;20076;-91
2023/01/29 00:05:08;;;;;;;0.95;0.95;;;;;;;-3.96;98.94;99423.22;5037209;28;20182;-92
2023/01/29 00:07:54;;;;;;;1.00;1.00;;;;;;;-3.95;99.01;99425.75;5055576;28;20053;-91
2023/01/29 00:10:21;;;;;;;0.65;0.65;;;;;;;-3.95;98.59;99430.16;5055084;28;20721;-92
2023/01/29 00:12:48;;;;;;;0.73;0.73;;;;;;;-3.97;98.28;99425.03;5054687;28;20071;-91
2023/01/29 00:15:15;;;;;;;0.88;0.88;;;;;;;-4.00;98.12;99430.59;5036704;28;20045;-91
2023/01/29 00:17:45;;;;;;;1.10;1.10;;;;;;;-4.00;98.02;99427.97;5054808;28;20053;-91
2023/01/29 00:20:12;;;;;;;0.80;0.80;;;;;;;-4.00;97.67;99429.75;5054780;28;20056;-91
2023/01/29 00:22:41;;;;;;;0.90;0.90;;;;;;;-4.03;97.81;99424.75;5055540;28;20052;-90
2023/01/29 00:25:11;;;;;;;1.00;1.00;;;;;;;-4.00;97.63;99419.19;5056884;28;20052;-91
2023/01/29 00:27:38;;;;;;;0.70;0.70;;;;;;;-3.96;97.53;99418.78;5056490;28;20049;-91
2023/01/29 00:30:13;;;;;;;0.80;0.80;;;;;;;-3.96;97.11;99416.16;5057634;28;20049;-91
2023/01/29 00:32:41;;;;;;;0.93;0.93;;;;;;;-4.04;96.58;99416.03;5059997;28;20152;-90
2023/01/29 00:35:08;;;;;;;0.88;0.88;;;;;;;-4.04;96.71;99410.75;5062238;28;20073;-90
2023/01/29 00:37:41;;;;;;;0.70;0.70;;;;;;;-3.96;96.58;99408.22;5062732;28;20044;-90
2023/01/29 00:40:08;;;;;;;1.00;1.00;;;;;;;-4.00;95.51;99404.22;5060923;28;20511;-90
2023/01/29 00:45:21;;;;;;;0.80;0.80;;;;;;;-4.07;94.76;99413.69;5036166;28;20069;-90
2023/01/29 00:47:48;;;;;;;0.70;0.70;;;;;;;-4.09;94.56;99407.72;5033635;28;20152;-92
2023/01/29 00:50:15;;;;;;;0.80;0.80;;;;;;;-4.10;94.84;99402.56;5033222;28;20050;-91
2023/01/29 00:52:43;;;;;;;0.93;0.93;;;;;;;-4.11;94.48;99398.28;5034047;28;20405;-92
2023/01/29 00:55:10;;;;;;;0.90;0.90;;;;;;;-4.09;94.84;99393.69;5033935;28;20053;-91
2023/01/29 00:57:38;;;;;;;0.60;0.60;;;;;;;-4.10;94.40;99394.66;5017020;28;20054;-91
2023/01/29 01:00:11;;;;;;;0.93;0.93;;;;;;;-4.14;94.28;99394.13;5016718;28;20057;-92
2023/01/29 01:05:25;;;;;;;0.80;0.80;;;;;;;-4.16;94.21;99398.69;5034338;28;20053;-92
2023/01/29 01:07:54;;;;;;;0.90;0.90;;;;;;;-4.22;94.09;99399.28;5033588;28;20140;-91
2023/01/29 01:10:23;;;;;;;0.80;0.80;;;;;;;-4.23;94.15;99400.22;5033462;28;20076;-90
2023/01/29 01:12:59;;;;;;;1.05;1.05;;;;;;;-4.19;94.49;99398.97;5033319;28;20049;-91
2023/01/29 01:15:35;;;;;;;0.88;0.88;;;;;;;-4.20;94.36;99400.78;5049919;28;20049;-91
2023/01/29 01:18:05;;;;;;;0.90;0.90;;;;;;;-4.26;94.34;99396.06;5015815;28;20498;-90
2023/01/29 01:20:33;;;;;;;0.80;0.80;;;;;;;-4.27;94.16;99397.03;4999514;28;20099;-91
2023/01/29 01:23:10;;;;;;;0.90;0.90;;;;;;;-4.26;94.40;99392.59;5033530;28;20058;-90
2023/01/29 01:25:37;;;;;;;0.77;0.77;;;;;;;-4.30;94.21;99392.06;5033561;28;20664;-92
2023/01/29 01:28:04;;;;;;;0.95;0.95;;;;;;;-4.30;94.14;99393.84;5015133;28;20448;-90
2023/01/29 01:30:32;;;;;;;0.90;0.90;;;;;;;-4.31;94.03;99392.19;5015422;28;20112;-92
2023/01/29 01:33:01;;;;;;;1.00;1.00;;;;;;;-4.33;94.46;99404.66;5032998;28;20084;-91
2023/01/29 01:35:29;;;;;;;0.93;0.93;;;;;;;-4.32;94.49;99399.28;5015256;28;20049;-91
2023/01/29 01:38:04;;;;;;;0.80;0.80;;;;;;;-4.34;94.66;99406.47;5016838;28;20056;-91
2023/01/29 01:40:31;;;;;;;0.70;0.70;;;;;;;-4.37;94.79;99404.94;5017186;28;20045;-90
2023/01/29 01:42:59;;;;;;;0.68;0.68;;;;;;;-4.36;95.06;99401.34;5015889;28;20133;-90
2023/01/29 01:45:28;;;;;;;0.95;0.95;;;;;;;-4.35;95.05;99394.28;5038773;28;20036;-90
2023/01/29 01:48:14;;;;;;;0.98;0.98;;;;;;;-4.32;95.21;99393.16;5055691;28;20146;-90
2023/01/29 01:51:02;;;;;;;0.80;0.80;;;;;;;-4.39;94.81;99385.81;5037504;28;20053;-89
2023/01/29 01:53:37;;;;;;;0.80;0.80;;;;;;;-4.47;94.99;99393.59;5021366;28;20084;-91
2023/01/29 01:56:17;;;;;;;1.00;1.00;;;;;;;-4.53;95.06;99393.28;5036115;28;20049;-91
2023/01/29 01:58:51;;;;;;;0.95;0.95;;;;;;;-4.62;94.35;99385.25;5017301;28;20128;-91
2023/01/29 02:01:25;;;;;;;0.80;0.80;;;;;;;-4.68;94.37;99385.00;5016106;28;20079;-92
2023/01/29 02:09:50;;;;;;;0.82;0.82;;;;;;;-4.58;93.77;99375.28;5015688;28;20049;-90
2023/01/29 02:12:17;;;;;;;0.90;0.90;;;;;;;-4.62;92.61;99358.09;5036147;28;20082;-90
2023/01/29 02:14:45;;;;;;;0.70;0.70;;;;;;;-4.61;92.63;99365.00;5016892;28;20050;-90
2023/01/29 02:17:15;;;;;;;0.77;0.77;;;;;;;-4.64;92.28;99355.59;5015896;28;20057;-91
2023/01/29 02:20:04;;;;;;;0.63;0.63;;;;;;;-4.66;91.91;99361.97;5033099;28;20101;-92
2023/01/29 02:23:01;;;;;;;0.68;0.68;;;;;;;-4.67;91.83;99361.13;5014263;28;20049;-90
2023/01/29 02:26:07;;;;;;;0.88;0.88;;;;;;;-4.66;91.74;99348.78;4998960;28;20103;-90
2023/01/29 02:28:43;;;;;;;0.77;0.77;;;;;;;-4.67;91.51;99345.34;5015703;28;20050;-91
2023/01/29 02:31:25;;;;;;;0.90;0.90;;;;;;;-4.62;91.01;99337.03;5033245;28;20057;-91
2023/01/29 02:34:10;;;;;;;0.75;0.75;;;;;;;-4.55;90.66;99332.88;5032680;28;20408;-90
2023/01/29 02:36:40;;;;;;;1.10;1.10;;;;;;;-4.55;90.03;99335.50;5015998;28;20049;-91
2023/01/29 02:39:27;;;;;;;0.82;0.82;;;;;;;-4.54;89.33;99333.69;5015714;28;20092;-91
2023/01/29 02:42:17;;;;;;;0.80;0.80;;;;;;;-4.58;88.52;99338.41;5014976;28;20065;-91
2023/01/29 02:44:55;;;;;;;0.80;0.80;;;;;;;-4.64;88.28;99323.16;5033472;28;20487;-91
2023/01/29 02:47:34;;;;;;;0.73;0.73;;;;;;;-4.62;88.11;99318.59;5033285;28;20057;-90
2023/01/29 02:50:20;;;;;;;0.70;0.70;;;;;;;-4.63;87.61;99316.94;5017819;28;20053;-91
2023/01/29 02:52:53;;;;;;;0.82;0.82;;;;;;;-4.70;87.31;99313.19;5009704;28;20041;-91
2023/01/29 02:55:24;;;;;;;0.90;0.90;;;;;;;-4.65;87.51;99318.88;5035631;28;20049;-92
2023/01/29 02:57:56;;;;;;;0.88;0.88;;;;;;;-4.64;87.32;99310.81;5033900;28;20077;-89
2023/01/29 03:00:28;;;;;;;1.00;1.00;;;;;;;-4.64;87.73;99302.09;5033996;28;20136;-89
2023/01/29 03:03:25;;;;;;;0.80;0.80;;;;;;;-4.61;87.71;99302.66;5033432;28;20041;-89
2023/01/29 03:06:19;;;;;;;0.80;0.80;;;;;;;-4.57;88.06;99300.56;5033654;28;20419;-90
2023/01/29 03:08:54;;;;;;;0.80;0.80;;;;;;;-4.56;88.11;99310.09;5019389;28;20080;-90
2023/01/29 03:11:30;;;;;;;0.65;0.65;;;;;;;-4.61;88.22;99300.03;5038229;28;20299;-90
2023/01/29 03:14:05;;;;;;;1.00;1.00;;;;;;;-4.61;88.04;99294.75;5038736;28;20049;-91
2023/01/29 03:16:41;;;;;;;0.80;0.80;;;;;;;-4.58;87.73;99304.19;5058435;28;20056;-90
2023/01/29 03:19:19;;;;;;;1.10;1.10;;;;;;;-4.59;86.86;99284.88;5040719;28;20135;-90
2023/01/29 03:22:00;;;;;;;0.85;0.85;;;;;;;-4.58;87.03;99281.28;5047043;28;20036;-88
2023/01/29 03:33:09;;;;;;;0.75;0.75;;;;;;;-4.71;87.31;99264.97;5015670;28;20052;-88
2023/01/29 03:35:42;;;;;;;0.90;0.90;;;;;;;-4.69;87.59;99267.44;5024397;28;20088;-88
2023/01/29 03:38:10;;;;;;;0.80;0.80;;;;;;;-4.71;87.77;99262.31;5023227;28;20045;-89
2023/01/29 03:40:58;;;;;;;0.80;0.80;;;;;;;-4.66;87.83;99252.19;5022635;28;20052;-90
2023/01/29 03:43:58;;;;;;;0.80;0.80;;;;;;;-4.67;87.69;99255.78;5002256;28;20073;-89
2023/01/29 03:46:37;;;;;;;0.88;0.88;;;;;;;-4.72;87.38;99244.84;5010087;28;20061;-89
2023/01/29 03:49:07;;;;;;;0.73;0.73;;;;;;;-4.70;87.50;99234.19;5017501;28;20553;-90
2023/01/29 03:51:40;;;;;;;0.80;0.80;;;;;;;-4.68;87.29;99233.06;5017137;28;20068;-89
2023/01/29 03:54:47;;;;;;;0.75;0.75;;;;;;;-4.68;87.36;99229.63;5016187;28;20051;-90
2023/01/29 03:57:16;;;;;;;0.90;0.90;;;;;;;-4.71;86.97;99222.81;5020784;28;20579;-89
2023/01/29 03:59:56;;;;;;;0.90;0.90;;;;;;;-4.69;87.07;99220.84;5016741;28;20052;-89
2023/01/29 04:03:22;;;;;;;0.90;0.90;;;;;;;-4.69;87.22;99212.94;5037912;28;20059;-88
2023/01/29 04:05:57;;;;;;;0.70;0.70;;;;;;;-4.73;87.05;99214.22;4974038;28;20058;-90
2023/01/29 04:08:33;;;;;;;0.50;0.50;;;;;;;-4.76;87.46;99197.88;4942390;28;20091;-89
2023/01/29 04:11:06;;;;;;;0.75;0.75;;;;;;;-4.73;87.62;99208.97;4957198;28;20066;-89
2023/01/29 04:13:35;;;;;;;0.90;0.90;;;;;;;-4.76;87.01;99203.13;4957708;28;20633;-90
2023/01/29 04:16:05;;;;;;;0.50;0.50;;;;;;;-4.79;87.28;99202.44;4941225;28;20043;-89
2023/01/29 04:19:08;;;;;;;0.82;0.82;;;;;;;-4.79;87.34;99197.16;4961410;28;20133;-88
2023/01/29 04:21:39;;;;;;;0.70;0.70;;;;;;;-4.78;87.42;99195.38;4973215;28;20065;-90
2023/01/29 04:24:07;;;;;;;0.88;0.88;;;;;;;-4.73;87.68;99193.16;4955948;28;20062;-89
2023/01/29 04:27:13;;;;;;;0.90;0.90;;;;;;;-4.70;88.01;99198.13;4956361;28;20067;-89
2023/01/29 04:30:00;;;;;;;0.73;0.73;;;;;;;-4.73;87.90;99198.44;4956990;28;20133;-89
2023/01/29 04:32:29;;;;;;;0.88;0.88;;;;;;;-4.76;87.93;99200.50;4973028;28;20101;-89
2023/01/29 04:35:04;;;;;;;0.70;0.70;;;;;;;-4.78;87.94;99190.13;4972167;28;20090;-87
2023/01/29 04:37:37;;;;;;;;;;;;;;;-4.81;88.05;99203.53;4958105;28;20158;-88
2023/01/29 04:40:15;;;;;;;0.90;0.90;;;;;;;-4.82;88.19;99208.00;5008804;28;20384;-88
2023/01/29 04:42:48;;;;;;;1.00;1.00;;;;;;;-4.83;88.32;99198.44;5033520;28;20061;-89
2023/01/29 04:45:42;;;;;;;0.80;0.80;;;;;;;-4.80;88.57;99198.16;5033154;28;20485;-89
2023/01/29 04:48:24;;;;;;;0.75;0.75;;;;;;;-4.81;88.47;99199.13;5016362;28;20049;-90
2023/01/29 04:50:59;;;;;;;0.80;0.80;;;;;;;-4.79;88.54;99197.16;5000080;28;20057;-89
2023/01/29 04:53:35;;;;;;;0.88;0.88;;;;;;;-4.77;88.42;99196.22;5016259;28;20041;-90
2023/01/29 04:56:32;;;;;;;0.80;0.80;;;;;;;-4.78;88.53;99184.84;5034544;28;20053;-90
2023/01/29 04:59:08;;;;;;;0.70;0.70;;;;;;;-4.82;88.44;99183.47;5031782;28;20073;-88
2023/01/29 05:01:37;;;;;;;0.90;0.90;;;;;;;-4.82;88.48;99179.03;5033738;28;20037;-89
2023/01/29 05:04:08;;;;;;;1.00;1.00;;;;;;;-4.77;88.29;99180.41;5016517;28;20591;-88
2023/01/29 05:06:37;;;;;;;0.85;0.85;;;;;;;-4.79;88.38;99178.72;5026469;28;20107;-90
2023/01/29 05:09:06;;;;;;;0.85;0.85;;;;;;;-4.76;88.28;99176.78;5017355;28;20050;-89
2023/01/29 05:11:34;;;;;;;0.70;0.70;;;;;;;-4.78;88.16;99176.97;5016554;28;20535;-88
2023/01/29 05:14:03;;;;;;;0.75;0.75;;;;;;;-4.77;88.13;99170.72;5016509;28;20048;-89
2023/01/29 05:16:40;;;;;;;0.73;0.73;;;;;;;-4.74;88.16;99164.31;4679022;28;10000272;-88
2023/01/29 05:19:09;;;;;;;0.68;0.68;;;;;;;-4.77;88.08;99162.81;5036774;28;20073;-86
2023/01/29 05:21:41;;;;;;;0.80;0.80;;;;;;;-4.77;88.07;99173.34;5053006;28;20526;-87
2023/01/29 05:24:16;;;;;;;0.80;0.80;;;;;;;-4.76;88.48;99176.78;5035421;28;20095;-88
2023/01/29 05:29:31;;;;;;;1.00;1.00;;;;;;;-4.79;88.42;99184.00;5038381;28;20087;-86
2023/01/29 05:31:58;;;;;;;0.60;0.60;;;;;;;-4.78;88.09;99176.97;5051693;28;20077;-87
2023/01/29 05:34:25;;;;;;;0.80;0.80;;;;;;;-4.84;88.45;99167.81;5053711;28;20411;-88
2023/01/29 05:36:53;;;;;;;0.85;0.85;;;;;;;-4.79;88.10;99170.00;5055562;28;20139;-88
2023/01/29 05:39:23;;;;;;;0.80;0.80;;;;;;;-4.82;87.81;99175.56;5053018;28;20116;-88
2023/01/29 05:41:50;;;;;;;1.10;1.10;;;;;;;-4.88;87.74;99186.69;5051813;28;20388;-89
2023/01/29 05:44:17;;;;;;;0.80;0.80;;;;;;;-4.88;88.24;99170.88;5052215;28;20051;-89
2023/01/29 05:46:44;;;;;;;0.57;0.57;;;;;;;-4.84;88.06;99186.22;5050467;28;20132;-89
2023/01/29 05:49:12;;;;;;;0.60;0.60;;;;;;;-4.85;87.92;99178.50;5042208;28;20107;-89
2023/01/29 05:51:39;;;;;;;0.70;0.70;;;;;;;-4.90;88.04;99181.53;5015568;28;20041;-88
2023/01/29 05:54:06;;;;;;;0.82;0.82;;;;;;;-4.94;87.96;99177.53;5032598;28;20057;-88
2023/01/29 05:56:33;;;;;;;0.70;0.70;;;;;;;-5.00;88.16;99175.47;5032903;28;20057;-88
2023/01/29 05:59:01;;;;;;;0.70;0.70;;;;;;;-4.95;88.12;99183.78;5031824;28;20065;-86
2023/01/29 06:01:28;;;;;;;1.02;1.02;;;;;;;-4.97;88.38;99179.63;5031192;28;20045;-88
2023/01/29 06:03:55;;;;;;;0.70;0.70;;;;;;;-4.94;88.56;99179.31;5013521;28;20042;-87
2023/01/29 06:06:22;;;;;;;1.00;1.00;;;;;;;-4.91;88.64;99179.91;5038069;28;20053;-94
2023/01/29 06:08:49;;;;;;;0.60;0.60;;;;;;;-4.89;88.79;99182.38;5037823;28;20550;-90
2023/01/29 06:11:17;;;;;;;0.90;0.90;;;;;;;-4.88;88.73;99176.16;5025219;28;20080;-92
2023/01/29 06:13:44;;;;;;;0.80;0.80;;;;;;;-4.88;89.13;99179.59;5053452;28;20053;-90
2023/01/29 06:16:37;;;;;;;0.70;0.70;;;;;;;-4.82;89.11;99189.56;5053851;28;20500;-88
2023/01/29 06:19:04;;;;;;;0.80;0.80;;;;;;;-4.80;89.13;99190.25;5030313;28;20059;-87
2023/01/29 06:21:31;;;;;;;0.88;0.88;;;;;;;-4.76;88.97;99188.19;5038237;28;20049;-91
2023/01/29 06:23:57;;;;;;;0.70;0.70;;;;;;;-4.74;89.12;99177.50;5037508;28;20432;-90
2023/01/29 06:26:24;;;;;;;0.70;0.70;;;;;;;-4.78;88.88;99174.31;5039505;28;20114;-89
2023/01/29 06:28:54;;;;;;;1.00;1.00;;;;;;;-4.79;88.95;99172.66;5045622;28;20118;-91
2023/01/29 06:31:26;;;;;;;0.90;0.90;;;;;;;-4.70;88.82;99163.06;5031162;28;20045;-92
2023/01/29 06:34:08;;;;;;;0.95;0.95;;;;;;;-4.69;88.82;99164.72;5030840;28;20060;-91
2023/01/29 06:36:35;;;;;;;0.60;0.60;;;;;;;-4.68;88.97;99156.69;5012127;28;20141;-89
2023/01/29 06:39:03;;;;;;;0.80;0.80;;;;;;;-4.65;88.72;99166.94;5027932;28;20065;-89
2023/01/29 06:41:30;;;;;;;0.75;0.75;;;;;;;-4.64;88.58;99163.31;5032214;28;20052;-91
2023/01/29 06:43:57;;;;;;;0.77;0.77;;;;;;;-4.63;88.33;99161.53;5014649;28;20056;-90
2023/01/29 06:46:33;;;;;;;0.90;0.90;;;;;;;-4.61;88.23;99164.84;5002169;28;20080;-91
2023/01/29 06:49:00;;;;;;;0.85;0.85;;;;;;;-4.61;87.85;99157.78;5030052;28;20057;-90
2023/01/29 06:55:03;;;;;;;0.75;0.75;;;;;;;-4.63;87.80;99161.53;6138454;23;20343;31
2023/01/29 06:57:31;;;;;;;0.90;0.90;;;;;;;-4.62;87.33;99163.19;4931615;29;20518;-87
2023/01/29 06:59:58;;;;;;;0.60;0.60;;;;;;;-4.64;87.73;99144.06;4950041;29;20106;-90
2023/01/29 07:02:25;;;;;;;0.70;0.70;;;;;;;-4.53;87.78;99157.06;4933408;29;20070;-86
2023/01/29 07:04:53;;;;;;;0.80;0.80;;;;;;;-4.62;87.15;99137.66;4951272;28;20062;-89
2023/01/29 07:07:21;;;;;;;0.75;0.75;;;;;;;-4.63;87.03;99129.94;4950179;29;20110;-88
2023/01/29 07:09:48;;;;;;;0.77;0.77;;;;;;;-4.52;86.85;99142.09;4954765;28;20053;-89
2023/01/29 07:12:15;;;;;;;0.80;0.80;;;;;;;-4.50;87.07;99134.88;4954304;28;20382;-89
2023/01/29 07:15:37;;;;;;;0.80;0.80;;;;;;;-4.47;86.78;99124.84;4960814;28;20496;-88
2023/01/29 07:21:26;;;;;;;0.90;0.90;;;;;;;-4.52;86.63;99110.47;4944419;28;20047;-90
2023/01/29 07:23:54;;;;;;;0.80;0.80;;;;;;;-4.45;86.32;99128.19;4956788;28;20038;-88
2023/01/29 07:28:30;;;;;;;;;;;;;;;;;;;;;
2023/01/29 07:31:08;;;;;;;0.80;0.80;;;;;;;-4.56;86.22;99109.91;4922837;29;20081;-91
2023/01/29 07:34:16;;;;;;;0.80;0.80;;;;;;;-4.44;86.00;99129.84;4942438;29;20047;-90
2023/01/29 07:40:12;;;;;;;0.80;0.80;;;;;;;-4.44;86.19;99102.66;4929589;28;19951;-91
2023/01/29 07:42:48;;;;;;;0.85;0.85;;;;;;;-4.34;85.60;99113.16;4935917;29;20047;-88
2023/01/29 07:45:36;;;;;;;0.70;0.70;;;;;;;-4.39;85.47;99103.88;4945669;29;20048;-90
2023/01/29 07:48:16;;;;;;;0.93;0.93;;;;;;;-4.31;85.62;99129.50;4928859;29;20052;-92
2023/01/29 07:50:59;;;;;;;0.80;0.80;;;;;;;-4.29;85.84;99113.53;5003309;23;20088;-92
2023/01/29 07:54:14;;;;;;;0.90;0.90;;;;;;;-4.17;85.14;99117.66;4975166;28;20134;-89
2023/01/29 07:57:05;;;;;;;1.00;1.00;;;;;;;-4.03;85.39;99126.84;4919381;29;20097;-91
2023/01/29 07:59:40;;;;;;;0.80;0.80;;;;;;;-4.10;85.01;99110.81;4945678;29;20047;-90
2023/01/29 08:02:34;;;;;;;0.75;0.75;;;;;;;-4.02;84.85;99102.16;4911543;29;20141;-88
2023/01/29 08:05:16;;;;;;;0.80;0.80;;;;;;;-3.97;84.45;99110.44;4928578;29;20122;-90
2023/01/29 08:07:59;;;;;;;1.00;1.00;;;;;;;-3.94;83.86;99100.41;4917688;29;20051;-92
2023/01/29 08:10:42;;;;;;;0.90;0.90;;;;;;;-3.99;83.69;99097.41;4942536;29;20053;-88
2023/01/29 08:13:15;;;;;;;0.90;0.90;;;;;;;-3.96;83.30;99102.38;4961334;29;20168;-90
2023/01/29 08:16:09;;;;;;;1.10;1.10;;;;;;;-4.03;83.33;99090.75;4938779;29;20060;-92
2023/01/29 08:18:41;;;;;;;0.80;0.80;;;;;;;-3.92;83.62;99093.19;4957258;29;20123;-92
2023/01/29 08:21:10;;;;;;;0.90;0.90;;;;;;;-3.91;82.90;99072.94;4931465;29;20154;-89
2023/01/29 08:23:40;;;;;;;0.90;0.90;;;;;;;-3.78;82.54;99083.09;4905788;29;20101;-88
2023/01/29 08:26:07;;;;;;;0.95;0.95;;;;;;;-3.69;82.13;99078.75;4908242;29;20051;-91
2023/01/29 08:28:48;;;;;;;0.85;0.85;;;;;;;-3.60;81.90;99083.91;4911087;29;20071;-87
2023/01/29 08:34:06;;;;;;;0.80;0.80;;;;;;;-3.59;81.35;99074.22;4958156;28;20070;-89
2023/01/29 08:36:39;;;;;;;0.88;0.88;;;;;;;-3.53;81.57;99070.94;4923769;29;20149;-88
2023/01/29 08:39:10;;;;;;;0.90;0.90;;;;;;;-3.47;81.29;99072.97;4906854;29;20578;-87
2023/01/29 08:41:37;;;;;;;0.90;0.90;;;;;;;-3.55;81.13;99057.91;4943178;29;20045;-88
2023/01/29 08:44:07;;;;;;;0.82;0.82;;;;;;;-3.55;80.33;99068.44;5049223;23;20129;-92
2023/01/29 08:46:36;;;;;;;0.90;0.90;;;;;;;-3.56;80.35;99073.91;5028824;23;20057;-93
2023/01/29 08:49:20;;;;;;;0.90;0.90;;;;;;;-3.78;80.62;99072.53;5073728;28;20048;-87
2023/01/29 08:52:01;;;;;;;0.88;0.88;;;;;;;-3.60;81.15;99078.63;5253830;23;20268;-89
2023/01/29 08:54:31;;;;;;;0.82;0.82;;;;;;;-3.55;80.58;99084.28;5010503;28;20247;-89
2023/01/29 08:57:07;;;;;;;0.85;0.85;;;;;;;-3.64;80.65;99072.03;5027110;28;20459;-88
2023/01/29 08:59:34;;;;;;;0.80;0.80;;;;;;;-3.56;80.97;99058.91;5027723;28;20597;-90
2023/01/29 09:02:01;;;;;;;0.98;0.98;;;;;;;-3.42;80.54;99072.50;5023152;28;20048;-88
2023/01/29 09:04:28;;;;;;;0.90;0.90;;;;;;;-3.49;79.63;99069.69;5024031;28;20083;-87
2023/01/29 09:06:56;;;;;;;0.70;0.70;;;;;;;-3.49;80.01;99064.41;5037368;28;20072;-89
2023/01/29 09:09:26;;;;;;;0.85;0.85;;;;;;;-3.52;79.75;99052.34;4987515;28;20069;-90
2023/01/29 09:11:58;;;;;;;0.80;0.80;;;;;;;-3.47;79.57;99053.66;5039737;28;20049;-89
2023/01/29 09:14:28;;;;;;;0.90;0.90;;;;;;;-3.45;79.63;99051.72;5020300;28;20057;-90
2023/01/29 09:16:57;;;;;;;1.00;1.00;;;;;;;-3.43;78.77;99060.31;5040316;28;20092;-92
2023/01/29 09:19:29;;;;;;;0.80;0.80;;;;;;;-3.54;78.70;99062.22;5006092;28;20538;-90
2023/01/29 09:21:57;;;;;;;0.88;0.88;;;;;;;-3.53;78.83;99055.13;5023852;28;20046;-92
2023/01/29 09:24:26;;;;;;;0.80;0.80;;;;;;;-3.47;79.41;99058.94;5029029;28;20051;-89
2023/01/29 09:26:57;;;;;;;0.80;0.80;;;;;;;-3.44;79.24;99064.78;5009678;28;20512;-90
2023/01/29 09:29:24;;;;;;;1.00;1.00;;;;;;;-3.52;79.22;99072.59;5004358;28;20617;-92
2023/01/29 09:31:51;;;;;;;0.60;0.60;;;;;;;-3.68;78.85;99054.84;5006639;28;20053;-91
2023/01/29 09:34:25;;;;;;;0.85;0.85;;;;;;;-3.72;79.42;99045.59;5040673;28;20056;-90
2023/01/29 09:37:03;;;;;;;0.73;0.73;;;;;;;-3.65;79.74;99040.50;5013823;28;20050;-90
2023/01/29 09:39:50;;;;;;;0.70;0.70;;;;;;;-3.67;79.82;99035.41;5028275;28;20679;-89
2023/01/29 09:42:27;;;;;;;1.00;1.00;;;;;;;-3.47;79.71;99043.13;4964602;28;20050;-90
2023/01/29 09:45:20;;;;;;;0.73;0.73;;;;;;;-3.42;79.30;99032.94;4994813;28;20137;-90
2023/01/29 09:47:50;;;;;;;0.90;0.90;;;;;;;-3.42;79.11;99038.19;4962459;28;20174;-91
2023/01/29 09:50:25;;;;;;;0.82;0.82;;;;;;;-3.39;79.02;99027.34;4965171;28;20073;-92
2023/01/29 09:53:11;;;;;;;0.80;0.80;;;;;;;-3.39;78.36;99019.41;4949914;28;20603;-90
2023/01/29 09:55:46;;;;;;;0.70;0.70;;;;;;;-3.39;78.58;99016.78;5000632;28;20057;-89
2023/01/29 09:58:31;;;;;;;1.27;1.20;;;;;;;-3.45;78.62;99025.31;4968645;28;20058;-90
2023/01/29 10:01:04;;;;;;;;;;;;;;;-3.51;78.72;99014.41;4984627;28;20057;-91
2023/01/29 10:04:29;;;;;;;0.80;0.80;;;;;;;-3.53;78.77;99015.53;4997088;28;19932;-92
2023/01/29 10:07:02;;;;;;;0.82;0.82;;;;;;;-3.58;78.90;99005.44;4959153;29;20051;-89
2023/01/29 10:10:08;;;;;;;0.85;0.85;;;;;;;-3.57;78.65;99006.28;4932293;29;20122;-89
2023/01/29 10:12:55;;;;;;;1.00;1.00;;;;;;;-3.58;79.24;98997.53;4909685;29;20052;-90
2023/01/29 10:15:44;;;;;;;0.80;0.80;;;;;;;-3.52;78.96;98989.03;4909207;29;20066;-91
2023/01/29 10:18:37;;;;;;;0.98;0.98;;;;;;;-3.52;79.00;98994.28;4910802;29;20605;-90
2023/01/29 10:21:31;;;;;;;0.60;0.60;;;;;;;-3.50;79.20;98994.13;4907892;29;20555;-91
2023/01/29 10:24:07;;;;;;;0.90;0.90;;;;;;;-3.50;79.25;98976.47;4891352;29;20104;-90
2023/01/29 10:26:39;;;;;;;1.00;1.00;;;;;;;-3.54;79.32;98959.31;4927436;29;20055;-91
2023/01/29 10:29:09;;;;;;;1.00;1.00;;;;;;;-3.53;79.07;98966.25;4887911;29;20054;-91
2023/01/29 10:31:39;;;;;;;0.75;0.75;;;;;;;-3.49;79.37;98956.22;4908196;29;20143;-90
2023/01/29 10:34:10;;;;;;;0.80;0.80;;;;;;;-3.41;79.31;98952.81;4919278;29;20052;-90
2023/01/29 10:36:46;;;;;;;0.90;0.90;;;;;;;-3.47;79.32;98927.00;4894784;29;20052;-93
2023/01/29 10:39:22;;;;;;;0.88;0.88;;;;;;;-3.32;78.78;98933.38;4916738;29;20074;-88
2023/01/29 10:42:02;;;;;;;0.95;0.95;;;;;;;-3.28;78.90;98927.63;4613989;29;9999909;-92
2023/01/29 10:44:52;;;;;;;0.80;0.80;;;;;;;-3.30;78.20;98915.56;4941377;29;20048;-91
2023/01/29 10:47:39;;;;;;;0.90;0.90;;;;;;;-3.24;78.16;98916.75;4950047;28;20331;-91
2023/01/29 10:50:40;;;;;;;0.98;0.98;;;;;;;-3.20;78.37;98908.34;5006534;28;20046;-93
2023/01/29 10:53:25;;;;;;;0.85;0.85;;;;;;;-3.07;78.20;98914.00;4996339;28;20058;-89
2023/01/29 10:55:55;;;;;;;1.00;1.00;;;;;;;-3.16;77.46;98898.31;5024377;28;20061;-88
2023/01/29 10:58:42;;;;;;;0.80;0.80;;;;;;;-3.23;77.53;98897.28;5015209;28;20589;-89
2023/01/29 11:01:15;;;;;;;0.80;0.80;;;;;;;-3.24;77.62;98911.47;4997371;28;20050;-90
2023/01/29 11:03:44;;;;;;;1.00;1.00;;;;;;;-3.28;77.74;98914.41;5019833;28;20060;-91
2023/01/29 11:06:11;;;;;;;1.00;1.00;;;;;;;-3.35;77.65;98907.28;4978033;28;20053;-88
2023/01/29 11:09:12;;;;;;;0.77;0.77;;;;;;;-3.31;78.12;98901.53;5002677;28;20507;-89
2023/01/29 11:11:59;;;;;;;0.85;0.85;;;;;;;-3.38;78.14;98897.88;4988771;28;20060;-87
2023/01/29 11:14:53;;;;;;;0.98;0.98;;;;;;;-3.33;78.54;98886.84;4988877;28;20050;-89
2023/01/29 11:17:35;;;;;;;0.80;0.80;;;;;;;-3.35;78.82;98875.63;4971380;28;20119;-87
2023/01/29 11:20:11;;;;;;;0.90;0.90;;;;;;;-3.25;78.36;98871.03;4979853;28;20058;-85
2023/01/29 11:22:52;;;;;;;1.02;1.02;;;;;;;-3.31;78.59;98858.50;5005887;28;20058;-89
2023/01/29 11:25:38;;;;;;;0.77;0.77;;;;;;;-3.39;78.37;98856.66;4989918;28;20049;-89
2023/01/29 11:28:51;;;;;;;1.00;1.00;;;;;;;-3.32;78.51;98872.66;5016359;28;20065;-91
2023/01/29 11:31:36;;;;;;;0.82;0.82;;;;;;;-3.49;78.47;98861.22;5016336;28;20077;-89
2023/01/29 11:34:32;;;;;;;0.90;0.90;;;;;;;-3.50;78.44;98851.66;4961268;28;20410;-88
2023/01/29 11:37:16;;;;;;;1.00;1.00;;;;;;;-3.49;78.97;98862.06;5013662;28;20072;-90
2023/01/29 11:39:46;;;;;;;0.70;0.70;;;;;;;-3.41;79.25;98869.19;4992322;28;20057;-88
2023/01/29 11:42:21;;;;;;;0.70;0.70;;;;;;;-3.41;79.16;98869.19;5030549;28;20064;-88
2023/01/29 11:44:48;;;;;;;0.77;0.77;;;;;;;-3.37;79.29;98869.66;5040179;28;20041;-86
2023/01/29 11:47:15;;;;;;;0.88;0.88;;;;;;;-3.31;79.06;98864.59;5036083;28;20508;-86
2023/01/29 11:49:53;;;;;;;0.70;0.70;;;;;;;-3.27;78.88;98868.59;5002221;28;20109;-87
2023/01/29 11:52:39;;;;;;;1.00;1.00;;;;;;;-3.28;79.05;98863.44;5019237;28;20054;-83
2023/01/29 11:55:25;;;;;;;0.88;0.88;;;;;;;-3.27;79.00;98865.09;4997084;28;20029;-90
2023/01/29 11:58:24;;;;;;;0.82;0.82;;;;;;;-3.24;79.03;98864.78;5033753;28;20049;-90
2023/01/29 12:00:54;;;;;;;0.90;0.90;;;;;;;-3.24;78.95;98863.94;5023302;28;20398;-90
2023/01/29 12:03:36;;;;;;;0.70;0.70;;;;;;;-3.25;78.98;98857.03;5003360;28;20196;-90
2023/01/29 12:06:18;;;;;;;1.10;1.10;;;;;;;-3.30;78.98;98854.84;5004763;28;20143;-90
2023/01/29 12:08:55;;;;;;;0.80;0.80;;;;;;;-3.45;79.04;98841.44;5004210;28;20050;-90
2023/01/29 12:11:33;;;;;;;0.90;0.90;;;;;;;-3.41;79.53;98841.97;5027222;28;20050;-90
2023/01/29 12:14:21;;;;;;;0.93;0.93;;;;;;;-3.35;79.81;98839.50;5004342;28;20557;-90
2023/01/29 12:17:12;;;;;;;1.00;1.00;;;;;;;-3.31;79.44;98840.84;4955576;28;20042;-89
2023/01/29 12:19:42;;;;;;;1.10;1.10;;;;;;;-3.33;79.58;98847.28;5019601;28;20136;-90
2023/01/29 12:22:40;;;;;;;1.00;1.00;;;;;;;-3.34;79.85;98849.09;5020242;28;20463;-90
2023/01/29 12:25:30;;;;;;;0.73;0.73;;;;;;;-3.39;80.04;98843.47;4992888;28;20092;-87
2023/01/29 12:28:26;;;;;;;0.85;0.85;;;;;;;-3.43;80.23;98842.13;4996955;28;20496;-88
2023/01/29 12:30:59;;;;;;;0.65;0.65;;;;;;;-3.42;80.36;98845.56;5041451;28;20471;-89
2023/01/29 12:33:40;;;;;;;0.77;0.77;;;;;;;-3.41;80.64;98844.59;5036355;28;20053;-86
2023/01/29 12:36:21;;;;;;;0.90;0.90;;;;;;;-3.43;80.76;98834.19;5025831;28;20049;-87
2023/01/29 12:38:48;;;;;;;0.90;0.90;;;;;;;-3.42;80.78;98838.47;5027346;28;20053;-91
2023/01/29 12:41:24;;;;;;;0.85;0.85;;;;;;;-3.38;81.24;98849.56;5012164;28;20049;-90
2023/01/29 12:43:58;;;;;;;0.90;0.90;;;;;;;-3.40;80.69;98844.44;5025230;28;20524;-89
2023/01/29 12:46:32;;;;;;;0.95;0.95;;;;;;;-3.43;80.68;98850.03;5009670;28;20050;-87
2023/01/29 12:49:02;;;;;;;0.80;0.80;;;;;;;-3.47;80.72;98832.03;5026556;28;20053;-87
2023/01/29 12:51:36;;;;;;;0.70;0.70;;;;;;;-3.41;81.05;98836.69;5019383;28;20543;-87
2023/01/29 12:54:07;;;;;;;0.75;0.75;;;;;;;-3.47;81.00;98840.75;4996730;28;20425;-92